sensor_id;sensor_type;location;lat;lon;timestamp;P1;durP1;ratioP1;P2;durP2;ratioP2
27428;SDS011;14881;48.092;11.574;2023-12-20T00:00:56;4.15;;;3.55;;
27428;SDS011;14881;48.092;11.574;2023-12-20T00:03:22;4.60;;;3.65;;
27428;SDS011;14881;48.092;11.574;2023-12-20T00:05:49;4.82;;;3.40;;
27428;SDS011;14881;48.092;11.574;2023-12-20T00:08:16;4.45;;;3.55;;
27428;SDS011;14881;48.092;11.574;2023-12-20T00:10:43;4.60;;;3.40;;
27428;SDS011;14881;48.092;11.574;2023-12-20T00:13:09;5.35;;;3.47;;
27428;SDS011;14881;48.092;11.574;2023-12-20T00:15:37;5.55;;;3.47;;
27428;SDS011;14881;48.092;11.574;2023-12-20T00:18:04;3.83;;;3.28;;
27428;SDS011;14881;48.092;11.574;2023-12-20T00:20:30;6.65;;;4.15;;
27428;SDS011;14881;48.092;11.574;2023-12-20T00:22:57;3.92;;;3.53;;
27428;SDS011;14881;48.092;11.574;2023-12-20T00:25:23;4.07;;;3.05;;
27428;SDS011;14881;48.092;11.574;2023-12-20T00:27:50;5.50;;;3.10;;
27428;SDS011;14881;48.092;11.574;2023-12-20T00:30:16;4.13;;;2.65;;
27428;SDS011;14881;48.092;11.574;2023-12-20T00:32:43;3.47;;;2.80;;
27428;SDS011;14881;48.092;11.574;2023-12-20T00:35:12;3.33;;;2.67;;
27428;SDS011;14881;48.092;11.574;2023-12-20T00:37:38;3.33;;;2.45;;
27428;SDS011;14881;48.092;11.574;2023-12-20T00:40:05;3.10;;;2.53;;
27428;SDS011;14881;48.092;11.574;2023-12-20T00:42:32;2.60;;;2.20;;
27428;SDS011;14881;48.092;11.574;2023-12-20T00:44:59;3.55;;;2.38;;
27428;SDS011;14881;48.092;11.574;2023-12-20T00:47:26;5.20;;;2.33;;
27428;SDS011;14881;48.092;11.574;2023-12-20T00:49:53;3.58;;;2.60;;
27428;SDS011;14881;48.092;11.574;2023-12-20T00:52:19;2.63;;;2.38;;
27428;SDS011;14881;48.092;11.574;2023-12-20T00:54:48;2.63;;;2.40;;
27428;SDS011;14881;48.092;11.574;2023-12-20T00:57:15;3.72;;;2.42;;
27428;SDS011;14881;48.092;11.574;2023-12-20T00:59:41;3.95;;;2.55;;
27428;SDS011;14881;48.092;11.574;2023-12-20T01:02:08;3.33;;;2.67;;
27428;SDS011;14881;48.092;11.574;2023-12-20T01:04:35;4.25;;;2.45;;
27428;SDS011;14881;48.092;11.574;2023-12-20T01:07:02;2.72;;;2.10;;
27428;SDS011;14881;48.092;11.574;2023-12-20T01:09:29;2.67;;;2.28;;
27428;SDS011;14881;48.092;11.574;2023-12-20T01:11:56;2.60;;;2.30;;
27428;SDS011;14881;48.092;11.574;2023-12-20T01:14:22;2.72;;;2.38;;
27428;SDS011;14881;48.092;11.574;2023-12-20T01:16:49;2.65;;;2.20;;
27428;SDS011;14881;48.092;11.574;2023-12-20T01:19:15;2.95;;;2.45;;
27428;SDS011;14881;48.092;11.574;2023-12-20T01:21:42;2.72;;;2.42;;
27428;SDS011;14881;48.092;11.574;2023-12-20T01:24:09;2.90;;;2.50;;
27428;SDS011;14881;48.092;11.574;2023-12-20T01:26:35;2.45;;;2.13;;
27428;SDS011;14881;48.092;11.574;2023-12-20T01:29:02;2.92;;;2.10;;
27428;SDS011;14881;48.092;11.574;2023-12-20T01:31:28;3.10;;;2.22;;
27428;SDS011;14881;48.092;11.574;2023-12-20T01:33:55;2.30;;;2.08;;
27428;SDS011;14881;48.092;11.574;2023-12-20T01:36:21;3.30;;;2.60;;
27428;SDS011;14881;48.092;11.574;2023-12-20T01:38:48;1.98;;;1.88;;
27428;SDS011;14881;48.092;11.574;2023-12-20T01:41:15;2.88;;;2.20;;
27428;SDS011;14881;48.092;11.574;2023-12-20T01:43:42;2.58;;;2.28;;
27428;SDS011;14881;48.092;11.574;2023-12-20T01:46:17;2.60;;;1.90;;
27428;SDS011;14881;48.092;11.574;2023-12-20T01:48:45;3.30;;;1.90;;
27428;SDS011;14881;48.092;11.574;2023-12-20T01:51:11;3.72;;;2.38;;
27428;SDS011;14881;48.092;11.574;2023-12-20T01:53:38;2.70;;;2.33;;
27428;SDS011;14881;48.092;11.574;2023-12-20T01:56:06;3.38;;;1.98;;
27428;SDS011;14881;48.092;11.574;2023-12-20T01:58:34;2.47;;;2.10;;
27428;SDS011;14881;48.092;11.574;2023-12-20T02:01:02;2.95;;;2.25;;
27428;SDS011;14881;48.092;11.574;2023-12-20T02:03:29;2.30;;;1.80;;
27428;SDS011;14881;48.092;11.574;2023-12-20T02:05:55;2.28;;;2.05;;
27428;SDS011;14881;48.092;11.574;2023-12-20T02:08:22;2.05;;;1.85;;
27428;SDS011;14881;48.092;11.574;2023-12-20T02:10:49;1.98;;;1.48;;
27428;SDS011;14881;48.092;11.574;2023-12-20T02:13:15;2.45;;;1.60;;
27428;SDS011;14881;48.092;11.574;2023-12-20T02:15:42;2.10;;;1.75;;
27428;SDS011;14881;48.092;11.574;2023-12-20T02:18:09;1.90;;;1.60;;
27428;SDS011;14881;48.092;11.574;2023-12-20T02:20:35;2.28;;;1.73;;
27428;SDS011;14881;48.092;11.574;2023-12-20T02:23:02;1.70;;;1.60;;
27428;SDS011;14881;48.092;11.574;2023-12-20T02:25:29;2.22;;;1.58;;
27428;SDS011;14881;48.092;11.574;2023-12-20T02:27:55;1.60;;;1.50;;
27428;SDS011;14881;48.092;11.574;2023-12-20T02:30:22;1.50;;;1.40;;
27428;SDS011;14881;48.092;11.574;2023-12-20T02:32:49;2.72;;;1.50;;
27428;SDS011;14881;48.092;11.574;2023-12-20T02:35:16;1.85;;;1.52;;
27428;SDS011;14881;48.092;11.574;2023-12-20T02:37:42;1.85;;;1.45;;
27428;SDS011;14881;48.092;11.574;2023-12-20T02:40:10;2.35;;;1.40;;
27428;SDS011;14881;48.092;11.574;2023-12-20T02:42:37;1.40;;;1.30;;
27428;SDS011;14881;48.092;11.574;2023-12-20T02:45:04;1.50;;;1.40;;
27428;SDS011;14881;48.092;11.574;2023-12-20T02:47:31;1.85;;;1.50;;
27428;SDS011;14881;48.092;11.574;2023-12-20T02:49:57;1.50;;;1.40;;
27428;SDS011;14881;48.092;11.574;2023-12-20T02:52:24;1.50;;;1.33;;
27428;SDS011;14881;48.092;11.574;2023-12-20T02:54:51;1.55;;;1.45;;
27428;SDS011;14881;48.092;11.574;2023-12-20T02:57:18;3.17;;;1.40;;
27428;SDS011;14881;48.092;11.574;2023-12-20T02:59:44;1.40;;;1.30;;
27428;SDS011;14881;48.092;11.574;2023-12-20T03:02:11;2.47;;;1.65;;
27428;SDS011;14881;48.092;11.574;2023-12-20T03:04:37;1.67;;;1.58;;
27428;SDS011;14881;48.092;11.574;2023-12-20T03:07:04;1.73;;;1.42;;
27428;SDS011;14881;48.092;11.574;2023-12-20T03:09:31;1.55;;;1.45;;
27428;SDS011;14881;48.092;11.574;2023-12-20T03:12:18;2.28;;;1.50;;
27428;SDS011;14881;48.092;11.574;2023-12-20T03:14:44;2.15;;;1.48;;
27428;SDS011;14881;48.092;11.574;2023-12-20T03:17:10;1.50;;;1.40;;
27428;SDS011;14881;48.092;11.574;2023-12-20T03:19:37;1.50;;;1.40;;
27428;SDS011;14881;48.092;11.574;2023-12-20T03:22:03;1.55;;;1.38;;
27428;SDS011;14881;48.092;11.574;2023-12-20T03:24:30;1.73;;;1.50;;
27428;SDS011;14881;48.092;11.574;2023-12-20T03:26:56;1.60;;;1.40;;
27428;SDS011;14881;48.092;11.574;2023-12-20T03:29:23;1.85;;;1.40;;
27428;SDS011;14881;48.092;11.574;2023-12-20T03:31:50;1.25;;;1.08;;
27428;SDS011;14881;48.092;11.574;2023-12-20T03:34:16;2.83;;;1.40;;
27428;SDS011;14881;48.092;11.574;2023-12-20T03:36:43;1.45;;;1.17;;
27428;SDS011;14881;48.092;11.574;2023-12-20T03:39:10;1.20;;;1.10;;
27428;SDS011;14881;48.092;11.574;2023-12-20T03:41:36;1.40;;;1.30;;
27428;SDS011;14881;48.092;11.574;2023-12-20T03:44:03;1.23;;;1.13;;
27428;SDS011;14881;48.092;11.574;2023-12-20T03:46:30;1.40;;;1.30;;
27428;SDS011;14881;48.092;11.574;2023-12-20T03:48:57;1.58;;;1.48;;
27428;SDS011;14881;48.092;11.574;2023-12-20T03:51:24;1.52;;;1.20;;
27428;SDS011;14881;48.092;11.574;2023-12-20T03:53:51;0.90;;;0.90;;
27428;SDS011;14881;48.092;11.574;2023-12-20T03:56:17;1.17;;;1.08;;
27428;SDS011;14881;48.092;11.574;2023-12-20T03:58:44;1.40;;;1.30;;
27428;SDS011;14881;48.092;11.574;2023-12-20T04:01:10;0.98;;;0.98;;
27428;SDS011;14881;48.092;11.574;2023-12-20T04:03:38;1.27;;;1.17;;
27428;SDS011;14881;48.092;11.574;2023-12-20T04:06:05;1.38;;;1.08;;
27428;SDS011;14881;48.092;11.574;2023-12-20T04:08:32;1.15;;;1.13;;
27428;SDS011;14881;48.092;11.574;2023-12-20T04:10:58;1.00;;;1.00;;
27428;SDS011;14881;48.092;11.574;2023-12-20T04:13:25;1.67;;;1.30;;
27428;SDS011;14881;48.092;11.574;2023-12-20T04:15:51;1.30;;;1.20;;
27428;SDS011;14881;48.092;11.574;2023-12-20T04:18:18;1.58;;;1.30;;
27428;SDS011;14881;48.092;11.574;2023-12-20T04:20:45;1.35;;;1.25;;
27428;SDS011;14881;48.092;11.574;2023-12-20T04:23:11;1.45;;;1.35;;
27428;SDS011;14881;48.092;11.574;2023-12-20T04:25:38;1.40;;;1.30;;
27428;SDS011;14881;48.092;11.574;2023-12-20T04:28:04;3.90;;;1.17;;
27428;SDS011;14881;48.092;11.574;2023-12-20T04:30:31;1.50;;;1.40;;
27428;SDS011;14881;48.092;11.574;2023-12-20T04:32:57;1.30;;;1.20;;
27428;SDS011;14881;48.092;11.574;2023-12-20T04:35:24;1.73;;;1.50;;
27428;SDS011;14881;48.092;11.574;2023-12-20T04:37:51;1.70;;;1.60;;
27428;SDS011;14881;48.092;11.574;2023-12-20T04:40:18;1.38;;;1.27;;
27428;SDS011;14881;48.092;11.574;2023-12-20T04:42:44;1.70;;;1.60;;
27428;SDS011;14881;48.092;11.574;2023-12-20T04:45:11;1.48;;;1.30;;
27428;SDS011;14881;48.092;11.574;2023-12-20T04:47:38;1.50;;;1.40;;
27428;SDS011;14881;48.092;11.574;2023-12-20T04:50:05;1.55;;;1.42;;
27428;SDS011;14881;48.092;11.574;2023-12-20T04:52:33;1.65;;;1.55;;
27428;SDS011;14881;48.092;11.574;2023-12-20T04:55:00;2.30;;;1.70;;
27428;SDS011;14881;48.092;11.574;2023-12-20T04:57:27;1.65;;;1.55;;
27428;SDS011;14881;48.092;11.574;2023-12-20T04:59:53;1.73;;;1.60;;
27428;SDS011;14881;48.092;11.574;2023-12-20T05:02:19;2.03;;;1.80;;
27428;SDS011;14881;48.092;11.574;2023-12-20T05:04:46;2.03;;;1.80;;
27428;SDS011;14881;48.092;11.574;2023-12-20T05:07:12;2.25;;;1.80;;
27428;SDS011;14881;48.092;11.574;2023-12-20T05:09:39;2.35;;;2.05;;
27428;SDS011;14881;48.092;11.574;2023-12-20T05:12:06;2.78;;;1.90;;
27428;SDS011;14881;48.092;11.574;2023-12-20T05:14:33;3.80;;;2.08;;
27428;SDS011;14881;48.092;11.574;2023-12-20T05:16:59;2.70;;;2.50;;
27428;SDS011;14881;48.092;11.574;2023-12-20T05:19:26;2.50;;;2.28;;
27428;SDS011;14881;48.092;11.574;2023-12-20T05:21:52;2.38;;;2.17;;
27428;SDS011;14881;48.092;11.574;2023-12-20T05:24:19;3.38;;;2.60;;
27428;SDS011;14881;48.092;11.574;2023-12-20T05:26:45;2.80;;;2.35;;
27428;SDS011;14881;48.092;11.574;2023-12-20T05:29:15;2.75;;;2.38;;
27428;SDS011;14881;48.092;11.574;2023-12-20T05:31:42;2.25;;;2.05;;
27428;SDS011;14881;48.092;11.574;2023-12-20T05:34:09;3.00;;;2.47;;
27428;SDS011;14881;48.092;11.574;2023-12-20T05:36:35;2.83;;;2.20;;
27428;SDS011;14881;48.092;11.574;2023-12-20T05:39:02;3.70;;;2.70;;
27428;SDS011;14881;48.092;11.574;2023-12-20T05:41:29;4.97;;;2.70;;
27428;SDS011;14881;48.092;11.574;2023-12-20T05:43:56;4.15;;;2.90;;
27428;SDS011;14881;48.092;11.574;2023-12-20T05:46:24;2.80;;;2.40;;
27428;SDS011;14881;48.092;11.574;2023-12-20T05:48:51;3.30;;;2.80;;
27428;SDS011;14881;48.092;11.574;2023-12-20T05:51:17;3.22;;;2.92;;
27428;SDS011;14881;48.092;11.574;2023-12-20T05:53:44;3.42;;;2.55;;
27428;SDS011;14881;48.092;11.574;2023-12-20T05:56:10;2.85;;;2.58;;
27428;SDS011;14881;48.092;11.574;2023-12-20T05:58:38;3.15;;;2.85;;
27428;SDS011;14881;48.092;11.574;2023-12-20T06:01:05;2.83;;;2.30;;
27428;SDS011;14881;48.092;11.574;2023-12-20T06:03:32;3.30;;;2.35;;
27428;SDS011;14881;48.092;11.574;2023-12-20T06:05:58;3.22;;;2.70;;
27428;SDS011;14881;48.092;11.574;2023-12-20T06:08:38;4.00;;;2.70;;
27428;SDS011;14881;48.092;11.574;2023-12-20T06:11:05;3.10;;;2.45;;
27428;SDS011;14881;48.092;11.574;2023-12-20T06:13:31;4.38;;;2.70;;
27428;SDS011;14881;48.092;11.574;2023-12-20T06:15:58;3.25;;;2.38;;
27428;SDS011;14881;48.092;11.574;2023-12-20T06:18:24;2.92;;;2.35;;
27428;SDS011;14881;48.092;11.574;2023-12-20T06:20:51;2.83;;;2.42;;
27428;SDS011;14881;48.092;11.574;2023-12-20T06:23:18;2.83;;;2.33;;
27428;SDS011;14881;48.092;11.574;2023-12-20T06:25:44;3.45;;;2.30;;
27428;SDS011;14881;48.092;11.574;2023-12-20T06:28:10;3.38;;;2.72;;
27428;SDS011;14881;48.092;11.574;2023-12-20T06:30:40;3.00;;;2.40;;
27428;SDS011;14881;48.092;11.574;2023-12-20T06:33:06;2.85;;;2.50;;
27428;SDS011;14881;48.092;11.574;2023-12-20T06:35:33;2.60;;;2.30;;
27428;SDS011;14881;48.092;11.574;2023-12-20T06:38:03;3.75;;;2.50;;
27428;SDS011;14881;48.092;11.574;2023-12-20T06:40:30;3.42;;;2.40;;
27428;SDS011;14881;48.092;11.574;2023-12-20T06:42:56;2.95;;;2.50;;
27428;SDS011;14881;48.092;11.574;2023-12-20T06:45:34;2.90;;;2.28;;
27428;SDS011;14881;48.092;11.574;2023-12-20T06:48:00;3.78;;;2.22;;
27428;SDS011;14881;48.092;11.574;2023-12-20T06:50:27;2.47;;;2.28;;
27428;SDS011;14881;48.092;11.574;2023-12-20T06:52:54;2.50;;;2.30;;
27428;SDS011;14881;48.092;11.574;2023-12-20T06:55:21;2.42;;;2.20;;
27428;SDS011;14881;48.092;11.574;2023-12-20T06:57:47;2.55;;;2.05;;
27428;SDS011;14881;48.092;11.574;2023-12-20T07:00:15;2.40;;;2.20;;
27428;SDS011;14881;48.092;11.574;2023-12-20T07:02:42;2.25;;;1.92;;
27428;SDS011;14881;48.092;11.574;2023-12-20T07:05:10;2.10;;;1.90;;
27428;SDS011;14881;48.092;11.574;2023-12-20T07:07:36;1.95;;;1.77;;
27428;SDS011;14881;48.092;11.574;2023-12-20T07:10:03;2.50;;;2.30;;
27428;SDS011;14881;48.092;11.574;2023-12-20T07:12:31;2.03;;;1.83;;
27428;SDS011;14881;48.092;11.574;2023-12-20T07:14:57;1.52;;;1.42;;
27428;SDS011;14881;48.092;11.574;2023-12-20T07:17:24;2.10;;;1.30;;
27428;SDS011;14881;48.092;11.574;2023-12-20T07:19:50;1.75;;;1.40;;
27428;SDS011;14881;48.092;11.574;2023-12-20T07:22:17;3.55;;;1.98;;
27428;SDS011;14881;48.092;11.574;2023-12-20T07:24:43;1.67;;;1.58;;
27428;SDS011;14881;48.092;11.574;2023-12-20T07:27:09;1.60;;;1.50;;
27428;SDS011;14881;48.092;11.574;2023-12-20T07:29:36;1.65;;;1.50;;
27428;SDS011;14881;48.092;11.574;2023-12-20T07:32:03;1.50;;;1.38;;
27428;SDS011;14881;48.092;11.574;2023-12-20T07:34:30;1.65;;;1.55;;
27428;SDS011;14881;48.092;11.574;2023-12-20T07:36:58;1.80;;;1.70;;
27428;SDS011;14881;48.092;11.574;2023-12-20T07:39:25;2.08;;;1.75;;
27428;SDS011;14881;48.092;11.574;2023-12-20T07:41:51;1.73;;;1.63;;
27428;SDS011;14881;48.092;11.574;2023-12-20T07:44:18;1.58;;;1.45;;
27428;SDS011;14881;48.092;11.574;2023-12-20T07:46:45;1.63;;;1.52;;
27428;SDS011;14881;48.092;11.574;2023-12-20T07:49:11;1.88;;;1.77;;
27428;SDS011;14881;48.092;11.574;2023-12-20T07:51:38;2.00;;;1.80;;
27428;SDS011;14881;48.092;11.574;2023-12-20T07:54:04;1.75;;;1.65;;
27428;SDS011;14881;48.092;11.574;2023-12-20T07:56:31;1.83;;;1.70;;
27428;SDS011;14881;48.092;11.574;2023-12-20T07:58:57;2.20;;;1.70;;
27428;SDS011;14881;48.092;11.574;2023-12-20T08:01:26;2.88;;;1.85;;
27428;SDS011;14881;48.092;11.574;2023-12-20T08:03:53;2.05;;;1.60;;
27428;SDS011;14881;48.092;11.574;2023-12-20T08:06:21;3.17;;;1.90;;
27428;SDS011;14881;48.092;11.574;2023-12-20T08:08:47;2.83;;;1.95;;
27428;SDS011;14881;48.092;11.574;2023-12-20T08:11:26;2.03;;;1.80;;
27428;SDS011;14881;48.092;11.574;2023-12-20T08:13:53;2.13;;;1.92;;
27428;SDS011;14881;48.092;11.574;2023-12-20T08:16:19;2.25;;;1.90;;
27428;SDS011;14881;48.092;11.574;2023-12-20T08:18:46;2.30;;;1.50;;
27428;SDS011;14881;48.092;11.574;2023-12-20T08:21:14;1.70;;;1.58;;
27428;SDS011;14881;48.092;11.574;2023-12-20T08:23:40;2.72;;;1.80;;
27428;SDS011;14881;48.092;11.574;2023-12-20T08:26:07;2.15;;;1.40;;
27428;SDS011;14881;48.092;11.574;2023-12-20T08:28:34;1.60;;;1.50;;
27428;SDS011;14881;48.092;11.574;2023-12-20T08:31:17;1.75;;;1.20;;
27428;SDS011;14881;48.092;11.574;2023-12-20T08:33:44;1.98;;;1.73;;
27428;SDS011;14881;48.092;11.574;2023-12-20T08:36:12;2.92;;;1.70;;
27428;SDS011;14881;48.092;11.574;2023-12-20T08:38:39;1.33;;;1.23;;
27428;SDS011;14881;48.092;11.574;2023-12-20T08:41:06;2.42;;;1.67;;
27428;SDS011;14881;48.092;11.574;2023-12-20T08:43:33;1.75;;;1.42;;
27428;SDS011;14881;48.092;11.574;2023-12-20T08:46:01;1.23;;;1.13;;
27428;SDS011;14881;48.092;11.574;2023-12-20T08:48:27;1.55;;;1.45;;
27428;SDS011;14881;48.092;11.574;2023-12-20T08:50:54;1.77;;;1.63;;
27428;SDS011;14881;48.092;11.574;2023-12-20T08:53:20;1.50;;;1.40;;
27428;SDS011;14881;48.092;11.574;2023-12-20T08:55:47;1.98;;;1.25;;
27428;SDS011;14881;48.092;11.574;2023-12-20T08:58:14;1.30;;;1.20;;
27428;SDS011;14881;48.092;11.574;2023-12-20T09:00:40;1.38;;;1.27;;
27428;SDS011;14881;48.092;11.574;2023-12-20T09:03:07;1.38;;;1.27;;
27428;SDS011;14881;48.092;11.574;2023-12-20T09:05:33;1.33;;;1.10;;
27428;SDS011;14881;48.092;11.574;2023-12-20T09:08:00;2.20;;;1.73;;
27428;SDS011;14881;48.092;11.574;2023-12-20T09:10:26;1.25;;;1.15;;
27428;SDS011;14881;48.092;11.574;2023-12-20T09:12:54;1.42;;;1.33;;
27428;SDS011;14881;48.092;11.574;2023-12-20T09:15:22;1.20;;;1.20;;
27428;SDS011;14881;48.092;11.574;2023-12-20T09:17:49;1.40;;;1.30;;
27428;SDS011;14881;48.092;11.574;2023-12-20T09:20:16;2.95;;;1.17;;
27428;SDS011;14881;48.092;11.574;2023-12-20T09:22:42;1.40;;;1.30;;
27428;SDS011;14881;48.092;11.574;2023-12-20T09:25:09;1.52;;;1.40;;
27428;SDS011;14881;48.092;11.574;2023-12-20T09:27:36;1.23;;;1.13;;
27428;SDS011;14881;48.092;11.574;2023-12-20T09:30:04;1.50;;;1.40;;
27428;SDS011;14881;48.092;11.574;2023-12-20T09:32:32;2.00;;;1.23;;
27428;SDS011;14881;48.092;11.574;2023-12-20T09:34:58;2.30;;;1.33;;
27428;SDS011;14881;48.092;11.574;2023-12-20T09:37:25;1.75;;;1.65;;
27428;SDS011;14881;48.092;11.574;2023-12-20T09:39:53;4.05;;;1.33;;
27428;SDS011;14881;48.092;11.574;2023-12-20T09:42:21;1.35;;;1.25;;
27428;SDS011;14881;48.092;11.574;2023-12-20T09:44:50;1.38;;;1.27;;
27428;SDS011;14881;48.092;11.574;2023-12-20T09:47:17;2.28;;;1.20;;
27428;SDS011;14881;48.092;11.574;2023-12-20T09:49:45;1.60;;;1.50;;
27428;SDS011;14881;48.092;11.574;2023-12-20T09:52:12;1.50;;;1.30;;
27428;SDS011;14881;48.092;11.574;2023-12-20T09:54:40;1.38;;;1.20;;
27428;SDS011;14881;48.092;11.574;2023-12-20T09:57:08;1.48;;;1.38;;
27428;SDS011;14881;48.092;11.574;2023-12-20T09:59:35;1.23;;;1.10;;
27428;SDS011;14881;48.092;11.574;2023-12-20T10:02:02;2.08;;;1.58;;
27428;SDS011;14881;48.092;11.574;2023-12-20T10:04:36;1.38;;;1.27;;
27428;SDS011;14881;48.092;11.574;2023-12-20T10:07:02;1.60;;;1.50;;
27428;SDS011;14881;48.092;11.574;2023-12-20T10:09:32;2.42;;;1.70;;
27428;SDS011;14881;48.092;11.574;2023-12-20T10:12:00;1.77;;;1.65;;
27428;SDS011;14881;48.092;11.574;2023-12-20T10:14:26;1.58;;;1.48;;
27428;SDS011;14881;48.092;11.574;2023-12-20T10:16:53;2.00;;;1.60;;
27428;SDS011;14881;48.092;11.574;2023-12-20T10:19:21;2.25;;;1.70;;
27428;SDS011;14881;48.092;11.574;2023-12-20T10:21:48;1.77;;;1.67;;
27428;SDS011;14881;48.092;11.574;2023-12-20T10:24:16;1.50;;;1.30;;
27428;SDS011;14881;48.092;11.574;2023-12-20T10:26:43;2.67;;;1.70;;
27428;SDS011;14881;48.092;11.574;2023-12-20T10:29:09;1.90;;;1.60;;
27428;SDS011;14881;48.092;11.574;2023-12-20T10:31:36;1.40;;;1.30;;
27428;SDS011;14881;48.092;11.574;2023-12-20T10:34:04;1.40;;;1.30;;
27428;SDS011;14881;48.092;11.574;2023-12-20T10:36:31;2.85;;;1.73;;
27428;SDS011;14881;48.092;11.574;2023-12-20T10:39:02;1.90;;;1.50;;
27428;SDS011;14881;48.092;11.574;2023-12-20T10:41:32;1.85;;;1.50;;
27428;SDS011;14881;48.092;11.574;2023-12-20T10:44:00;4.88;;;1.48;;
27428;SDS011;14881;48.092;11.574;2023-12-20T10:46:28;1.60;;;1.50;;
27428;SDS011;14881;48.092;11.574;2023-12-20T10:48:55;1.75;;;1.58;;
27428;SDS011;14881;48.092;11.574;2023-12-20T10:51:23;1.40;;;1.30;;
27428;SDS011;14881;48.092;11.574;2023-12-20T10:53:52;1.70;;;1.60;;
27428;SDS011;14881;48.092;11.574;2023-12-20T10:56:20;1.48;;;1.23;;
27428;SDS011;14881;48.092;11.574;2023-12-20T10:58:49;2.40;;;1.50;;
27428;SDS011;14881;48.092;11.574;2023-12-20T11:01:16;1.25;;;1.15;;
27428;SDS011;14881;48.092;11.574;2023-12-20T11:03:44;1.88;;;1.42;;
27428;SDS011;14881;48.092;11.574;2023-12-20T11:06:18;1.50;;;1.40;;
27428;SDS011;14881;48.092;11.574;2023-12-20T11:08:53;2.05;;;1.40;;
27428;SDS011;14881;48.092;11.574;2023-12-20T11:11:35;1.95;;;1.33;;
27428;SDS011;14881;48.092;11.574;2023-12-20T11:14:07;2.88;;;1.52;;
27428;SDS011;14881;48.092;11.574;2023-12-20T11:16:40;2.85;;;1.40;;
27428;SDS011;14881;48.092;11.574;2023-12-20T11:19:19;1.77;;;1.67;;
27428;SDS011;14881;48.092;11.574;2023-12-20T11:21:46;1.95;;;1.80;;
27428;SDS011;14881;48.092;11.574;2023-12-20T11:24:13;1.85;;;1.75;;
27428;SDS011;14881;48.092;11.574;2023-12-20T11:26:45;2.08;;;1.60;;
27428;SDS011;14881;48.092;11.574;2023-12-20T11:32:01;2.00;;;1.90;;
27428;SDS011;14881;48.092;11.574;2023-12-20T11:34:30;2.20;;;1.98;;
27428;SDS011;14881;48.092;11.574;2023-12-20T11:36:58;3.38;;;2.20;;
27428;SDS011;14881;48.092;11.574;2023-12-20T11:42:39;2.22;;;2.03;;
27428;SDS011;14881;48.092;11.574;2023-12-20T11:45:08;2.95;;;2.30;;
27428;SDS011;14881;48.092;11.574;2023-12-20T11:47:35;2.47;;;2.28;;
27428;SDS011;14881;48.092;11.574;2023-12-20T11:50:02;2.10;;;1.90;;
27428;SDS011;14881;48.092;11.574;2023-12-20T11:52:30;5.05;;;2.42;;
27428;SDS011;14881;48.092;11.574;2023-12-20T11:54:57;4.00;;;2.17;;
27428;SDS011;14881;48.092;11.574;2023-12-20T11:57:24;2.50;;;2.30;;
27428;SDS011;14881;48.092;11.574;2023-12-20T11:59:53;7.47;;;3.35;;
27428;SDS011;14881;48.092;11.574;2023-12-20T12:02:20;2.40;;;2.10;;
27428;SDS011;14881;48.092;11.574;2023-12-20T12:04:48;3.00;;;2.35;;
27428;SDS011;14881;48.092;11.574;2023-12-20T12:07:14;2.75;;;2.55;;
27428;SDS011;14881;48.092;11.574;2023-12-20T12:09:41;2.85;;;2.35;;
27428;SDS011;14881;48.092;11.574;2023-12-20T12:12:08;3.70;;;2.80;;
27428;SDS011;14881;48.092;11.574;2023-12-20T12:14:38;2.05;;;1.85;;
27428;SDS011;14881;48.092;11.574;2023-12-20T12:17:10;2.28;;;2.08;;
27428;SDS011;14881;48.092;11.574;2023-12-20T12:19:38;3.35;;;2.40;;
27428;SDS011;14881;48.092;11.574;2023-12-20T12:22:04;2.58;;;2.20;;
27428;SDS011;14881;48.092;11.574;2023-12-20T12:24:32;2.50;;;2.20;;
27428;SDS011;14881;48.092;11.574;2023-12-20T12:26:59;2.83;;;2.28;;
27428;SDS011;14881;48.092;11.574;2023-12-20T12:29:25;3.67;;;2.17;;
27428;SDS011;14881;48.092;11.574;2023-12-20T12:31:52;2.45;;;1.92;;
27428;SDS011;14881;48.092;11.574;2023-12-20T12:34:19;2.55;;;2.35;;
27428;SDS011;14881;48.092;11.574;2023-12-20T12:36:45;3.28;;;2.53;;
27428;SDS011;14881;48.092;11.574;2023-12-20T12:39:13;2.35;;;2.10;;
27428;SDS011;14881;48.092;11.574;2023-12-20T12:41:41;2.90;;;2.35;;
27428;SDS011;14881;48.092;11.574;2023-12-20T12:44:07;2.80;;;1.70;;
27428;SDS011;14881;48.092;11.574;2023-12-20T12:49:09;2.28;;;2.08;;
27428;SDS011;14881;48.092;11.574;2023-12-20T12:51:36;1.75;;;1.65;;
27428;SDS011;14881;48.092;11.574;2023-12-20T12:54:03;2.70;;;2.13;;
27428;SDS011;14881;48.092;11.574;2023-12-20T12:56:30;2.50;;;2.20;;
27428;SDS011;14881;48.092;11.574;2023-12-20T12:58:56;2.47;;;2.20;;
27428;SDS011;14881;48.092;11.574;2023-12-20T13:01:23;2.30;;;2.10;;
27428;SDS011;14881;48.092;11.574;2023-12-20T13:03:49;2.83;;;2.30;;
27428;SDS011;14881;48.092;11.574;2023-12-20T13:06:16;3.20;;;2.30;;
27428;SDS011;14881;48.092;11.574;2023-12-20T13:08:43;3.38;;;2.28;;
27428;SDS011;14881;48.092;11.574;2023-12-20T13:11:10;3.30;;;2.47;;
27428;SDS011;14881;48.092;11.574;2023-12-20T13:13:37;3.17;;;2.10;;
27428;SDS011;14881;48.092;11.574;2023-12-20T13:16:04;2.53;;;2.05;;
27428;SDS011;14881;48.092;11.574;2023-12-20T13:18:31;2.20;;;2.00;;
27428;SDS011;14881;48.092;11.574;2023-12-20T13:20:57;2.00;;;1.77;;
27428;SDS011;14881;48.092;11.574;2023-12-20T13:23:24;3.88;;;2.63;;
27428;SDS011;14881;48.092;11.574;2023-12-20T13:25:51;2.60;;;2.40;;
27428;SDS011;14881;48.092;11.574;2023-12-20T13:28:17;3.67;;;3.17;;
27428;SDS011;14881;48.092;11.574;2023-12-20T13:30:44;3.53;;;3.17;;
27428;SDS011;14881;48.092;11.574;2023-12-20T13:33:10;3.40;;;3.10;;
27428;SDS011;14881;48.092;11.574;2023-12-20T13:35:37;3.35;;;2.63;;
27428;SDS011;14881;48.092;11.574;2023-12-20T13:38:04;3.17;;;2.88;;
27428;SDS011;14881;48.092;11.574;2023-12-20T13:40:32;3.17;;;2.55;;
27428;SDS011;14881;48.092;11.574;2023-12-20T13:42:59;4.68;;;3.33;;
27428;SDS011;14881;48.092;11.574;2023-12-20T13:45:26;3.20;;;2.85;;
27428;SDS011;14881;48.092;11.574;2023-12-20T13:47:52;4.15;;;3.00;;
27428;SDS011;14881;48.092;11.574;2023-12-20T13:50:19;5.22;;;3.20;;
27428;SDS011;14881;48.092;11.574;2023-12-20T13:52:45;6.45;;;3.10;;
27428;SDS011;14881;48.092;11.574;2023-12-20T13:55:12;4.72;;;3.63;;
27428;SDS011;14881;48.092;11.574;2023-12-20T13:57:39;8.27;;;4.65;;
27428;SDS011;14881;48.092;11.574;2023-12-20T14:00:21;7.63;;;3.88;;
27428;SDS011;14881;48.092;11.574;2023-12-20T14:02:47;5.28;;;3.95;;
27428;SDS011;14881;48.092;11.574;2023-12-20T14:05:14;4.97;;;3.78;;
27428;SDS011;14881;48.092;11.574;2023-12-20T14:07:43;7.93;;;3.95;;
27428;SDS011;14881;48.092;11.574;2023-12-20T14:10:10;5.40;;;4.20;;
27428;SDS011;14881;48.092;11.574;2023-12-20T14:12:38;4.95;;;3.83;;
27428;SDS011;14881;48.092;11.574;2023-12-20T14:15:05;7.90;;;3.60;;
27428;SDS011;14881;48.092;11.574;2023-12-20T14:17:37;6.30;;;3.85;;
27428;SDS011;14881;48.092;11.574;2023-12-20T14:20:04;6.43;;;3.60;;
27428;SDS011;14881;48.092;11.574;2023-12-20T14:22:32;6.72;;;4.20;;
27428;SDS011;14881;48.092;11.574;2023-12-20T14:24:59;7.32;;;3.83;;
27428;SDS011;14881;48.092;11.574;2023-12-20T14:27:26;7.55;;;3.92;;
27428;SDS011;14881;48.092;11.574;2023-12-20T14:29:53;9.02;;;4.38;;
27428;SDS011;14881;48.092;11.574;2023-12-20T14:32:20;4.90;;;3.47;;
27428;SDS011;14881;48.092;11.574;2023-12-20T14:34:47;7.22;;;3.65;;
27428;SDS011;14881;48.092;11.574;2023-12-20T14:37:13;5.80;;;3.53;;
27428;SDS011;14881;48.092;11.574;2023-12-20T14:39:40;5.78;;;3.60;;
27428;SDS011;14881;48.092;11.574;2023-12-20T14:42:09;4.57;;;4.05;;